Time;durP1;ratioP1;P1;durP2;ratioP2;P2;SDS_P1;SDS_P2;PMS_P1;PMS_P2;Temp;Humidity;BMP_temperature;BMP_pressure;BME280_temperature;BME280_humidity;BME280_pressure;Samples;Min_cycle;Max_cycle;Signal;HPM_P1;HPM_P2
2021/12/02 00:01:40;;;;;;;4.05;0.85;;;4.30;99.90;;;;;;5030524;28;20041;-72
2021/12/02 00:04:06;;;;;;;4.43;0.80;;;4.30;99.90;;;;;;5015888;28;20136;-73
2021/12/02 00:06:32;;;;;;;3.17;0.80;;;4.30;99.90;;;;;;5033004;28;20543;-73
2021/12/02 00:08:58;;;;;;;6.78;0.88;;;4.20;99.90;;;;;;5033541;28;20034;-72
2021/12/02 00:11:23;;;;;;;6.05;0.90;;;4.10;99.90;;;;;;5028878;28;20030;-72
2021/12/02 00:17:26;;;;;;;7.00;1.00;;;4.00;99.90;;;;;;5029792;28;20095;-72
2021/12/02 00:22:03;;;;;;;9.02;1.30;;;3.90;99.90;;;;;;5031920;28;20398;-73
2021/12/02 00:24:36;;;;;;;4.13;0.93;;;3.90;99.90;;;;;;5031944;28;20129;-73
2021/12/02 00:27:08;;;;;;;6.53;1.63;;;3.90;99.90;;;;;;5029331;28;20052;-73
2021/12/02 00:29:35;;;;;;;7.13;1.10;;;3.90;99.90;;;;;;5031909;28;20046;-73
2021/12/02 00:32:04;;;;;;;5.55;1.42;;;3.80;99.90;;;;;;5031701;28;20041;-73
2021/12/02 00:34:30;;;;;;;5.13;1.10;;;3.90;99.90;;;;;;5033102;28;20033;-73
2021/12/02 00:36:57;;;;;;;4.70;1.05;;;3.80;99.90;;;;;;5031014;28;20036;-73
2021/12/02 00:39:24;;;;;;;6.03;1.00;;;3.80;99.90;;;;;;5028891;28;20080;-73
2021/12/02 00:41:50;;;;;;;7.60;1.63;;;4.00;99.90;;;;;;5032990;28;20034;-72
2021/12/02 00:44:18;;;;;;;5.22;1.00;;;3.80;99.90;;;;;;5030205;28;20033;-72
2021/12/02 00:46:45;;;;;;;4.15;0.82;;;3.70;99.90;;;;;;5029357;28;20099;-72
2021/12/02 00:49:14;;;;;;;5.97;1.40;;;3.90;99.90;;;;;;5030878;28;20041;-72
2021/12/02 00:51:40;;;;;;;6.20;0.95;;;3.80;99.90;;;;;;5031202;28;20037;-72
2021/12/02 00:54:09;;;;;;;5.15;0.95;;;3.90;99.90;;;;;;5032674;28;20065;-72
2021/12/02 00:56:35;;;;;;;8.07;1.05;;;4.20;99.90;;;;;;5029663;28;20124;-72
2021/12/02 00:59:01;;;;;;;4.88;0.80;;;4.00;99.90;;;;;;5029047;28;20088;-73
2021/12/02 01:01:36;;;;;;;2.92;0.70;;;3.90;99.90;;;;;;5014148;28;20045;-73
2021/12/02 01:04:06;;;;;;;9.20;1.83;;;3.80;99.90;;;;;;5030352;28;20037;-73
2021/12/02 01:06:33;;;;;;;6.68;0.90;;;3.80;99.90;;;;;;5032394;28;20038;-72
2021/12/02 01:08:58;;;;;;;4.75;0.70;;;3.70;99.90;;;;;;5030593;28;20044;-72
2021/12/02 01:11:24;;;;;;;6.43;1.13;;;3.80;99.90;;;;;;5030670;28;20045;-72
2021/12/02 01:13:50;;;;;;;10.30;2.10;;;3.80;99.90;;;;;;5032566;28;20030;-73
2021/12/02 01:16:17;;;;;;;4.53;0.77;;;3.90;99.90;;;;;;5031914;28;20037;-72
2021/12/02 01:18:43;;;;;;;4.88;0.75;;;3.80;99.90;;;;;;5032567;28;20040;-72
2021/12/02 01:21:17;;;;;;;4.20;0.90;;;3.80;99.90;;;;;;5030459;28;20507;-72
2021/12/02 01:23:44;;;;;;;8.18;1.55;;;3.90;99.90;;;;;;5032583;28;20409;-72
2021/12/02 01:26:12;;;;;;;5.10;0.93;;;3.90;99.90;;;;;;5033946;28;20041;-73
2021/12/02 01:28:38;;;;;;;7.97;1.00;;;3.80;99.90;;;;;;5034863;28;20033;-73
2021/12/02 01:31:04;;;;;;;3.63;0.70;;;3.80;99.90;;;;;;5035133;28;20057;-73
2021/12/02 01:33:30;;;;;;;6.05;1.40;;;3.80;99.90;;;;;;5030189;28;20052;-72
2021/12/02 01:36:01;;;;;;;8.90;1.17;;;3.70;99.90;;;;;;5034381;28;20393;-72
2021/12/02 01:38:28;;;;;;;5.75;1.15;;;3.80;99.90;;;;;;5033941;28;20159;-73
2021/12/02 01:40:59;;;;;;;7.72;1.05;;;3.80;99.90;;;;;;5034443;28;20095;-72
2021/12/02 01:43:44;;;;;;;6.22;1.52;;;3.90;99.90;;;;;;5034414;28;20073;-72
2021/12/02 01:46:10;;;;;;;5.68;1.00;;;3.90;99.90;;;;;;5033766;28;20053;-72
2021/12/02 01:48:40;;;;;;;3.72;0.68;;;3.90;99.90;;;;;;5035118;28;20076;-73
2021/12/02 01:51:10;;;;;;;2.10;0.57;;;3.90;99.90;;;;;;5034891;28;20050;-72
2021/12/02 01:53:39;;;;;;;3.25;1.52;;;4.00;99.90;;;;;;5036059;28;20041;-73
2021/12/02 01:56:11;;;;;;;3.17;0.60;;;4.00;99.90;;;;;;5035693;28;20038;-73
2021/12/02 01:58:51;;;;;;;4.63;0.70;;;4.00;99.90;;;;;;5034871;28;20506;-73
2021/12/02 02:01:24;;;;;;;2.47;0.50;;;4.00;99.90;;;;;;5033827;28;20056;-72
2021/12/02 02:03:52;;;;;;;3.92;0.68;;;4.00;99.90;;;;;;5032890;28;20049;-72
2021/12/02 02:06:26;;;;;;;1.52;0.63;;;4.00;99.90;;;;;;5033185;28;20049;-73
2021/12/02 02:08:54;;;;;;;3.20;0.50;;;4.00;99.90;;;;;;5032852;28;20049;-72
2021/12/02 02:11:20;;;;;;;2.55;0.52;;;4.10;99.90;;;;;;5035078;28;20041;-72
2021/12/02 02:13:45;;;;;;;3.92;0.60;;;4.20;99.90;;;;;;5034703;28;20052;-72
2021/12/02 02:16:11;;;;;;;2.80;0.60;;;4.10;99.90;;;;;;5017834;28;20076;-72
2021/12/02 02:18:38;;;;;;;3.08;0.50;;;4.10;99.90;;;;;;5033715;28;20041;-73
2021/12/02 02:21:06;;;;;;;4.75;0.80;;;4.00;99.90;;;;;;5035633;28;20048;-73
2021/12/02 02:23:36;;;;;;;3.83;0.40;;;4.00;99.90;;;;;;5033916;28;20041;-72
2021/12/02 02:26:01;;;;;;;4.88;0.40;;;4.00;99.90;;;;;;5035657;28;20037;-73
2021/12/02 02:28:29;;;;;;;4.70;0.60;;;4.10;99.90;;;;;;5034793;28;20041;-72
2021/12/02 02:30:55;;;;;;;3.03;0.80;;;4.20;99.90;;;;;;5032656;28;20088;-72
2021/12/02 02:33:22;;;;;;;4.22;0.68;;;4.30;99.90;;;;;;5035117;28;20478;-72
2021/12/02 02:35:48;;;;;;;4.82;0.85;;;4.10;99.90;;;;;;5034143;28;20105;-73
2021/12/02 02:38:14;;;;;;;4.40;0.63;;;4.00;99.90;;;;;;5033468;28;20124;-73
2021/12/02 02:40:43;;;;;;;4.38;0.52;;;3.90;99.90;;;;;;5033098;28;20545;-73
2021/12/02 02:43:10;;;;;;;1.98;0.52;;;3.90;99.90;;;;;;5033772;28;20079;-73
2021/12/02 02:45:37;;;;;;;3.20;0.60;;;4.00;99.90;;;;;;5033789;28;20422;-72
2021/12/02 02:48:04;;;;;;;6.18;0.88;;;3.80;99.90;;;;;;5030902;28;20095;-72
2021/12/02 02:50:31;;;;;;;3.42;0.63;;;3.70;99.90;;;;;;5032878;28;20045;-72
2021/12/02 02:53:03;;;;;;;6.05;0.75;;;3.80;99.90;;;;;;5049608;28;20046;-72
2021/12/02 02:55:29;;;;;;;3.78;1.00;;;3.80;99.90;;;;;;5032969;28;20494;-72
2021/12/02 02:58:13;;;;;;;5.18;0.77;;;3.70;99.90;;;;;;5033098;28;20055;-72
2021/12/02 03:00:50;;;;;;;3.35;0.55;;;3.60;99.90;;;;;;5030044;28;20038;-72
2021/12/02 03:08:35;;;;;;;5.70;0.80;;;3.60;99.90;;;;;;5031972;28;20553;-72
2021/12/02 03:11:01;;;;;;;3.90;1.02;;;3.50;99.90;;;;;;5034504;28;20038;-72
2021/12/02 03:13:45;;;;;;;5.28;0.65;;;3.40;99.90;;;;;;5033630;28;20034;-72
2021/12/02 03:18:55;;;;;;;3.00;0.65;;;3.70;99.90;;;;;;5030309;28;20401;-72
2021/12/02 03:21:23;;;;;;;0.75;0.40;;;3.60;99.90;;;;;;5048870;28;20080;-72
2021/12/02 03:23:54;;;;;;;5.00;0.77;;;3.70;99.90;;;;;;5033591;28;20497;-72
2021/12/02 03:26:20;;;;;;;3.72;0.45;;;3.50;99.90;;;;;;5034589;28;20048;-72
2021/12/02 03:28:47;;;;;;;5.20;1.10;;;3.50;99.90;;;;;;5031626;28;20033;-72
2021/12/02 03:31:14;;;;;;;4.47;0.80;;;3.60;99.90;;;;;;5028553;28;20046;-72
2021/12/02 03:33:41;;;;;;;4.45;0.73;;;3.50;99.90;;;;;;5033302;28;20045;-72
2021/12/02 03:36:11;;;;;;;4.45;0.88;;;3.50;99.90;;;;;;5032995;28;20034;-72
2021/12/02 03:38:37;;;;;;;2.80;0.60;;;3.50;99.90;;;;;;5044863;28;20045;-71
2021/12/02 03:41:02;;;;;;;6.32;0.80;;;3.60;99.90;;;;;;5033315;28;20041;-72
2021/12/02 03:43:37;;;;;;;4.05;0.68;;;3.50;99.90;;;;;;5031905;28;20060;-71
2021/12/02 03:46:03;;;;;;;1.77;0.70;;;3.40;99.90;;;;;;5033514;28;20029;-72
2021/12/02 03:48:29;;;;;;;2.65;0.50;;;3.40;99.90;;;;;;5033584;28;20045;-72
2021/12/02 03:50:55;;;;;;;4.45;0.73;;;3.50;99.90;;;;;;5029207;28;20049;-72
2021/12/02 03:53:20;;;;;;;1.30;0.75;;;3.30;99.90;;;;;;5031987;28;20176;-72
2021/12/02 03:55:46;;;;;;;1.98;0.52;;;3.20;99.90;;;;;;5032644;28;20505;-72
2021/12/02 03:58:12;;;;;;;2.22;0.60;;;3.20;99.90;;;;;;5032556;28;20049;-72
2021/12/02 04:00:37;;;;;;;4.38;0.80;;;3.10;99.90;;;;;;5014609;28;20038;-72
2021/12/02 04:03:03;;;;;;;4.55;0.88;;;3.00;99.90;;;;;;5033151;28;20037;-72
2021/12/02 04:05:29;;;;;;;3.03;0.50;;;3.00;99.90;;;;;;5030804;28;20070;-72
2021/12/02 04:07:54;;;;;;;1.17;0.50;;;3.00;99.90;;;;;;5016065;28;20124;-72
2021/12/02 04:10:21;;;;;;;4.97;0.73;;;3.00;99.90;;;;;;5032445;28;20053;-72
2021/12/02 04:15:21;;;;;;;6.05;0.95;;;3.00;99.90;;;;;;5032603;28;20128;-72
2021/12/02 04:17:48;;;;;;;2.67;0.60;;;3.00;99.90;;;;;;5033269;28;20044;-72
2021/12/02 04:20:16;;;;;;;4.30;0.80;;;3.00;99.90;;;;;;5015014;28;20040;-72
2021/12/02 04:22:43;;;;;;;4.15;1.00;;;3.10;99.90;;;;;;5031197;28;20045;-72
2021/12/02 04:25:09;;;;;;;3.22;0.70;;;3.20;99.90;;;;;;5033395;28;20479;-72
2021/12/02 04:27:35;;;;;;;4.05;0.73;;;3.20;99.90;;;;;;5015300;28;20391;-72
2021/12/02 04:30:02;;;;;;;2.97;0.63;;;3.10;99.90;;;;;;5033204;28;20043;-72
2021/12/02 04:32:27;;;;;;;1.95;0.57;;;3.00;99.90;;;;;;5012294;28;20482;-72
2021/12/02 04:34:53;;;;;;;2.40;0.70;;;3.00;99.90;;;;;;5031163;28;20088;-72
2021/12/02 04:37:18;;;;;;;3.08;0.80;;;3.10;99.90;;;;;;5032355;28;20060;-72
2021/12/02 04:39:44;;;;;;;4.70;0.68;;;3.20;99.90;;;;;;5032960;28;20045;-72
2021/12/02 04:42:10;;;;;;;4.50;0.80;;;3.20;99.90;;;;;;5031900;28;20128;-72
2021/12/02 04:44:35;;;;;;;3.08;0.45;;;3.20;99.90;;;;;;5031516;28;20044;-72
2021/12/02 04:47:01;;;;;;;1.67;0.50;;;3.40;99.90;;;;;;5031468;28;20552;-72
2021/12/02 04:49:26;;;;;;;4.20;0.80;;;3.50;99.90;;;;;;5032713;28;20045;-72
2021/12/02 04:51:52;;;;;;;3.13;0.60;;;3.40;99.90;;;;;;5031621;28;20041;-72
2021/12/02 04:54:17;;;;;;;2.63;0.70;;;3.30;99.90;;;;;;5031227;28;20033;-72
2021/12/02 04:56:43;;;;;;;3.47;0.60;;;3.40;99.90;;;;;;5031999;28;20045;-72
2021/12/02 04:59:09;;;;;;;2.78;0.60;;;3.50;99.90;;;;;;5030867;28;20512;-72
2021/12/02 05:01:34;;;;;;;3.20;0.95;;;3.40;99.90;;;;;;5031891;28;20061;-72
2021/12/02 05:04:00;;;;;;;4.22;0.80;;;3.10;99.90;;;;;;5030547;28;20040;-72
2021/12/02 05:06:26;;;;;;;2.13;0.52;;;2.90;99.90;;;;;;5031643;28;20037;-72
2021/12/02 05:08:51;;;;;;;1.17;0.40;;;2.90;99.90;;;;;;5030318;28;20482;-72
2021/12/02 05:11:17;;;;;;;7.25;1.42;;;3.00;99.90;;;;;;5032660;28;20037;-72
2021/12/02 05:13:42;;;;;;;2.75;1.00;;;2.90;99.90;;;;;;5031799;28;20038;-72
2021/12/02 05:16:08;;;;;;;4.63;0.88;;;2.90;99.90;;;;;;5032479;28;20044;-72
2021/12/02 05:18:34;;;;;;;1.02;0.50;;;2.80;99.90;;;;;;5025370;28;20476;-72
2021/12/02 05:21:00;;;;;;;3.17;1.17;;;2.90;99.90;;;;;;5031092;28;20474;-72
2021/12/02 05:23:26;;;;;;;1.75;0.60;;;2.90;99.90;;;;;;5031896;28;20038;-72
2021/12/02 05:25:52;;;;;;;2.28;0.60;;;2.80;99.90;;;;;;5032532;28;20041;-72
2021/12/02 05:28:18;;;;;;;4.38;0.60;;;2.90;99.90;;;;;;5029975;28;20072;-72
2021/12/02 05:30:45;;;;;;;3.65;0.60;;;2.90;99.90;;;;;;5029954;28;20049;-72
2021/12/02 05:33:11;;;;;;;1.83;0.57;;;2.90;99.90;;;;;;5029441;28;20073;-72
2021/12/02 05:35:37;;;;;;;1.70;0.65;;;3.00;99.90;;;;;;5028652;28;20080;-72
2021/12/02 05:38:03;;;;;;;3.08;0.55;;;3.00;99.90;;;;;;5026756;28;20041;-72
2021/12/02 05:40:29;;;;;;;3.30;0.60;;;2.90;99.90;;;;;;5033824;28;20034;-72
2021/12/02 05:42:55;;;;;;;3.17;0.50;;;2.90;99.90;;;;;;5031654;28;20068;-72
2021/12/02 05:45:20;;;;;;;2.97;0.50;;;3.00;99.90;;;;;;5031091;28;20128;-72
2021/12/02 05:47:46;;;;;;;3.92;0.60;;;3.00;99.90;;;;;;5030250;28;20041;-72
2021/12/02 05:50:11;;;;;;;3.33;0.68;;;3.00;99.90;;;;;;5029433;28;20041;-72
2021/12/02 05:52:37;;;;;;;2.88;0.35;;;3.10;99.90;;;;;;5030685;28;20037;-72
2021/12/02 05:55:03;;;;;;;3.22;0.50;;;3.10;99.90;;;;;;5031710;28;20079;-71
2021/12/02 05:57:31;;;;;;;3.25;0.43;;;3.10;99.90;;;;;;5031213;28;20034;-71
2021/12/02 05:59:57;;;;;;;2.20;0.40;;;3.10;99.90;;;;;;5029894;28;20510;-72
2021/12/02 06:02:23;;;;;;;2.38;0.40;;;3.10;99.90;;;;;;5026056;28;20044;-71
2021/12/02 06:04:51;;;;;;;0.77;0.30;;;3.00;99.90;;;;;;5031398;28;20049;-71
2021/12/02 06:07:18;;;;;;;1.00;0.20;;;3.00;99.90;;;;;;5031350;28;20110;-71
2021/12/02 06:09:44;;;;;;;1.52;0.30;;;2.90;99.90;;;;;;5028604;28;20042;-71
2021/12/02 06:12:10;;;;;;;1.88;0.40;;;2.90;99.90;;;;;;5029280;28;20485;-72
2021/12/02 06:14:36;;;;;;;1.52;0.30;;;2.90;99.90;;;;;;5015416;28;20044;-72
2021/12/02 06:17:01;;;;;;;0.70;0.30;;;2.90;99.90;;;;;;5034388;28;20033;-72
2021/12/02 06:19:27;;;;;;;1.77;0.30;;;3.00;99.90;;;;;;5030140;28;20037;-72
2021/12/02 06:21:52;;;;;;;0.30;0.13;;;3.00;99.90;;;;;;5032046;28;20037;-72
2021/12/02 06:24:19;;;;;;;0.80;0.10;;;3.00;99.90;;;;;;5034172;28;20083;-72
2021/12/02 06:26:45;;;;;;;0.85;0.22;;;2.90;99.90;;;;;;5033196;28;20029;-72
2021/12/02 06:29:11;;;;;;;1.08;0.38;;;2.80;99.90;;;;;;5034086;28;20474;-72
2021/12/02 06:31:36;;;;;;;0.70;0.30;;;2.70;99.90;;;;;;5049888;28;20041;-72
2021/12/02 06:34:02;;;;;;;2.58;0.43;;;2.80;99.90;;;;;;5034217;28;20038;-72
2021/12/02 06:36:28;;;;;;;2.50;0.52;;;2.80;99.90;;;;;;5017094;28;20065;-72
2021/12/02 06:38:53;;;;;;;1.27;0.50;;;2.80;99.90;;;;;;5035194;28;20489;-72
2021/12/02 06:41:19;;;;;;;1.02;0.30;;;2.80;99.90;;;;;;5030908;28;20038;-73
2021/12/02 06:43:45;;;;;;;1.20;0.20;;;2.90;99.90;;;;;;5017416;28;20048;-73
2021/12/02 06:46:11;;;;;;;3.58;0.40;;;2.90;99.90;;;;;;5031987;28;20588;-73
2021/12/02 06:48:36;;;;;;;1.00;0.20;;;2.90;99.90;;;;;;5031600;28;20045;-73
2021/12/02 06:51:02;;;;;;;2.22;0.28;;;2.80;99.90;;;;;;5031684;28;20486;-72
2021/12/02 06:53:29;;;;;;;1.30;0.32;;;2.70;99.90;;;;;;5033049;28;20038;-73
2021/12/02 06:55:54;;;;;;;1.58;0.30;;;2.80;99.90;;;;;;5032345;28;20041;-73
2021/12/02 06:58:20;;;;;;;2.55;0.40;;;2.80;99.90;;;;;;5028526;28;20045;-73
2021/12/02 07:00:45;;;;;;;2.53;0.50;;;2.90;99.90;;;;;;5031706;28;20042;-74
2021/12/02 07:03:11;;;;;;;0.95;0.10;;;3.00;99.90;;;;;;5030920;28;20033;-74
2021/12/02 07:05:36;;;;;;;2.22;0.30;;;3.20;99.90;;;;;;5026846;28;20084;-74
2021/12/02 07:08:02;;;;;;;0.82;0.30;;;3.20;99.90;;;;;;5032724;28;20043;-74
2021/12/02 07:10:29;;;;;;;1.13;0.30;;;2.90;99.90;;;;;;5031472;28;20034;-75
2021/12/02 07:12:56;;;;;;;0.85;0.25;;;2.70;99.90;;;;;;5014442;28;20084;-74
2021/12/02 07:15:39;;;;;;;1.45;0.40;;;2.60;99.90;;;;;;5031225;28;20432;-74
2021/12/02 07:18:12;;;;;;;1.88;1.00;;;2.60;99.90;;;;;;5031908;28;20037;-74
2021/12/02 07:20:38;;;;;;;0.98;0.30;;;2.70;99.90;;;;;;5033418;28;20444;-74
2021/12/02 07:23:04;;;;;;;1.55;0.40;;;2.80;99.90;;;;;;5031810;28;20095;-74
2021/12/02 07:25:31;;;;;;;0.60;0.30;;;2.80;99.90;;;;;;5015807;28;20045;-74
2021/12/02 07:27:56;;;;;;;0.57;0.30;;;2.60;99.90;;;;;;5029946;28;20441;-74
2021/12/02 07:30:22;;;;;;;0.32;0.32;;;2.60;99.90;;;;;;5031805;28;20038;-74
2021/12/02 07:32:53;;;;;;;0.75;0.30;;;2.60;99.90;;;;;;5032818;28;20037;-74
2021/12/02 07:35:19;;;;;;;0.65;0.30;;;2.70;99.90;;;;;;5031661;28;20909;-74
2021/12/02 07:37:53;;;;;;;2.20;1.05;;;2.80;99.90;;;;;;5032716;28;20045;-74
2021/12/02 07:40:20;;;;;;;0.40;0.30;;;3.00;99.90;;;;;;5033810;28;20112;-74
2021/12/02 07:42:48;;;;;;;2.22;0.75;;;2.70;99.90;;;;;;5000247;28;20125;-74
2021/12/02 07:45:15;;;;;;;2.17;0.50;;;2.60;99.90;;;;;;5032317;28;20391;-74
2021/12/02 07:47:42;;;;;;;2.85;0.70;;;2.60;99.90;;;;;;5016513;28;20497;-73
2021/12/02 07:50:13;;;;;;;2.08;0.80;;;2.60;99.90;;;;;;5032680;28;20034;-73
2021/12/02 07:52:49;;;;;;;2.58;0.70;;;2.50;99.90;;;;;;5031206;28;20056;-73
2021/12/02 07:55:16;;;;;;;2.08;0.90;;;2.50;99.90;;;;;;5014112;28;20035;-73
2021/12/02 07:57:43;;;;;;;2.22;0.57;;;2.40;99.90;;;;;;5033811;28;20082;-73
2021/12/02 08:00:11;;;;;;;2.70;0.85;;;2.40;99.90;;;;;;5032350;28;20128;-73
2021/12/02 08:02:41;;;;;;;1.35;0.65;;;2.30;99.90;;;;;;5032351;28;20037;-73
2021/12/02 08:05:07;;;;;;;1.42;0.63;;;2.30;99.90;;;;;;5032012;28;20048;-73
2021/12/02 08:07:33;;;;;;;1.50;0.47;;;2.30;99.90;;;;;;5032693;28;20037;-73
2021/12/02 08:09:58;;;;;;;3.33;0.70;;;2.40;99.90;;;;;;5033431;28;20033;-73
2021/12/02 08:12:24;;;;;;;2.13;0.60;;;2.50;99.90;;;;;;5032169;28;20040;-73
2021/12/02 08:14:50;;;;;;;3.10;0.70;;;2.50;99.90;;;;;;5031660;28;20033;-73
2021/12/02 08:17:16;;;;;;;2.05;0.80;;;2.50;99.90;;;;;;5032122;28;20041;-73
2021/12/02 08:19:42;;;;;;;5.68;1.13;;;2.50;99.90;;;;;;5033229;28;20121;-74
2021/12/02 08:22:08;;;;;;;3.00;0.80;;;2.40;99.90;;;;;;5033552;28;20033;-73
2021/12/02 08:24:33;;;;;;;1.02;0.85;;;2.40;99.90;;;;;;5033178;28;20375;-74
2021/12/02 08:26:59;;;;;;;3.10;1.20;;;2.40;99.90;;;;;;5031891;28;20120;-73
2021/12/02 08:29:25;;;;;;;1.98;1.00;;;2.40;99.90;;;;;;5032117;28;20037;-73
2021/12/02 08:31:50;;;;;;;2.90;1.00;;;2.40;99.90;;;;;;5031749;28;20037;-73
2021/12/02 08:34:17;;;;;;;2.08;1.00;;;2.50;99.90;;;;;;5032033;28;20041;-73
2021/12/02 08:36:50;;;;;;;2.28;1.10;;;2.50;99.90;;;;;;5032036;28;20429;-73
2021/12/02 08:39:18;;;;;;;2.55;1.10;;;2.50;99.90;;;;;;5015190;28;20033;-73
2021/12/02 08:41:48;;;;;;;2.95;1.30;;;2.50;99.90;;;;;;5032948;28;20041;-73
2021/12/02 08:44:16;;;;;;;2.58;1.15;;;2.40;99.90;;;;;;5030215;28;20049;-73
2021/12/02 08:46:41;;;;;;;3.63;1.60;;;2.40;99.90;;;;;;5048603;28;20485;-73
2021/12/02 08:49:07;;;;;;;2.13;1.00;;;2.50;99.90;;;;;;5032936;28;20040;-73
2021/12/02 08:51:33;;;;;;;3.35;1.23;;;2.50;99.90;;;;;;5032708;28;20045;-73
2021/12/02 08:53:58;;;;;;;1.73;1.00;;;2.50;99.90;;;;;;5032670;28;20038;-73
2021/12/02 08:56:24;;;;;;;2.63;1.20;;;2.60;99.90;;;;;;5032512;28;20147;-73
2021/12/02 08:58:51;;;;;;;3.63;1.00;;;2.60;99.90;;;;;;5032489;28;20131;-73
2021/12/02 09:01:16;;;;;;;2.38;0.90;;;2.50;99.90;;;;;;5032629;28;20033;-73
2021/12/02 09:03:42;;;;;;;2.88;1.20;;;2.70;99.90;;;;;;5031688;28;20060;-73
2021/12/02 09:06:11;;;;;;;1.70;1.10;;;2.70;99.90;;;;;;5031399;28;20046;-73
2021/12/02 09:08:38;;;;;;;1.77;0.80;;;2.80;99.90;;;;;;5032486;28;20460;-73
2021/12/02 09:11:04;;;;;;;2.92;1.10;;;2.90;99.90;;;;;;5032669;28;20068;-73
2021/12/02 09:13:30;;;;;;;2.60;1.27;;;2.90;99.90;;;;;;5030274;28;20077;-73
2021/12/02 09:15:56;;;;;;;2.10;1.10;;;2.90;99.90;;;;;;5031625;28;20555;-73
2021/12/02 09:18:22;;;;;;;3.47;1.20;;;2.90;99.90;;;;;;5032013;28;20049;-72
2021/12/02 09:20:48;;;;;;;4.13;1.00;;;3.00;99.90;;;;;;5031276;28;20122;-72
2021/12/02 09:23:14;;;;;;;2.50;1.02;;;3.10;99.90;;;;;;5032565;28;20076;-72
2021/12/02 09:25:40;;;;;;;2.35;1.00;;;3.10;99.90;;;;;;5032415;28;20501;-73
2021/12/02 09:28:06;;;;;;;3.53;1.13;;;3.10;99.90;;;;;;5032376;28;20036;-72
2021/12/02 09:30:32;;;;;;;3.10;1.42;;;3.20;99.90;;;;;;5031291;28;20059;-72
2021/12/02 09:32:58;;;;;;;2.17;1.00;;;3.30;99.90;;;;;;5030344;28;20034;-72
2021/12/02 09:35:23;;;;;;;2.72;0.98;;;3.40;99.90;;;;;;5031739;28;20539;-73
2021/12/02 09:37:49;;;;;;;1.85;1.08;;;3.40;99.90;;;;;;5028720;28;20044;-73
2021/12/02 09:40:16;;;;;;;1.55;0.90;;;3.40;99.90;;;;;;5014660;28;20033;-73
2021/12/02 09:42:43;;;;;;;2.15;1.10;;;3.30;99.90;;;;;;5029812;28;20043;-73
2021/12/02 09:45:09;;;;;;;4.07;1.20;;;3.40;99.90;;;;;;5032227;28;20037;-73
2021/12/02 09:47:38;;;;;;;1.83;1.00;;;3.50;99.90;;;;;;5034740;28;20033;-73
2021/12/02 09:50:10;;;;;;;1.73;0.82;;;3.50;99.90;;;;;;5036023;28;20065;-73
2021/12/02 09:52:39;;;;;;;2.65;1.10;;;3.50;99.90;;;;;;5036106;28;20038;-72
2021/12/02 09:55:12;;;;;;;5.00;1.20;;;3.50;99.90;;;;;;5033664;28;20038;-72
2021/12/02 09:57:44;;;;;;;5.47;1.25;;;3.50;99.90;;;;;;5034942;28;20037;-73
2021/12/02 10:00:21;;;;;;;2.13;1.00;;;3.50;99.90;;;;;;5034730;28;20053;-73
2021/12/02 10:02:54;;;;;;;3.20;1.38;;;3.60;99.90;;;;;;5036050;28;20037;-73
2021/12/02 10:05:36;;;;;;;5.10;1.20;;;3.60;99.90;;;;;;5036036;28;20056;-73
2021/12/02 10:08:05;;;;;;;2.25;1.10;;;3.70;99.90;;;;;;5034379;28;20367;-73
2021/12/02 10:10:40;;;;;;;1.20;0.80;;;3.70;99.90;;;;;;5035784;28;20099;-73
2021/12/02 10:13:19;;;;;;;1.55;0.80;;;3.80;99.90;;;;;;5035654;28;20486;-73
2021/12/02 10:16:16;;;;;;;2.05;0.90;;;3.90;99.90;;;;;;5034277;28;20037;-73
2021/12/02 10:18:56;;;;;;;3.42;1.00;;;4.10;99.90;;;;;;5033888;28;20038;-73
2021/12/02 10:21:38;;;;;;;3.47;1.17;;;4.10;99.90;;;;;;5035758;28;20040;-73
2021/12/02 10:24:05;;;;;;;;;;;4.00;99.90;;;;;;5034638;28;20079;-73
2021/12/02 10:26:36;;;;;;;2.28;0.60;;;4.00;99.90;;;;;;5034109;28;19916;-73
2021/12/02 10:29:08;;;;;;;4.15;0.95;;;3.90;99.90;;;;;;5035514;28;20033;-72
2021/12/02 10:31:36;;;;;;;2.03;0.60;;;3.80;99.90;;;;;;5035601;28;20112;-71
2021/12/02 10:34:05;;;;;;;0.93;0.60;;;3.50;99.90;;;;;;5035290;28;20034;-72
2021/12/02 10:36:51;;;;;;;2.13;0.50;;;3.40;99.90;;;;;;5050657;28;20091;-72
2021/12/02 10:39:24;;;;;;;0.52;0.40;;;3.20;99.90;;;;;;5033362;28;20041;-72
2021/12/02 10:42:00;;;;;;;1.52;0.50;;;3.30;99.90;;;;;;5031552;28;20540;-72
2021/12/02 10:44:30;;;;;;;1.52;0.73;;;3.60;99.90;;;;;;5035123;28;20049;-73
2021/12/02 10:47:07;;;;;;;3.38;0.80;;;3.30;99.90;;;;;;5034051;28;20099;-73
2021/12/02 10:49:43;;;;;;;1.70;1.00;;;3.10;99.90;;;;;;5032236;28;20095;-74
2021/12/02 10:52:29;;;;;;;2.10;1.00;;;3.00;99.90;;;;;;5032578;28;20555;-74
2021/12/02 10:55:10;;;;;;;3.33;1.30;;;2.90;99.90;;;;;;5037566;28;20056;-74
2021/12/02 10:57:38;;;;;;;2.17;1.10;;;3.10;99.90;;;;;;5032457;28;20045;-73
2021/12/02 11:00:14;;;;;;;1.85;0.90;;;3.00;99.90;;;;;;5032887;28;20513;-74
2021/12/02 11:02:46;;;;;;;2.58;0.65;;;3.00;99.90;;;;;;5031541;28;20505;-73
2021/12/02 11:05:36;;;;;;;;;;;3.20;99.90;;;;;;5033714;28;20037;-74
2021/12/02 11:08:05;;;;;;;1.20;0.60;;;3.20;99.90;;;;;;5025503;28;19971;-73
2021/12/02 11:10:43;;;;;;;2.20;1.00;;;3.30;99.90;;;;;;5028803;28;20091;-73
2021/12/02 11:13:11;;;;;;;1.85;0.60;;;3.30;99.90;;;;;;5033452;28;20296;-73
2021/12/02 11:15:38;;;;;;;1.45;0.60;;;3.40;99.90;;;;;;5028527;28;20037;-73
2021/12/02 11:18:09;;;;;;;1.33;0.60;;;3.20;99.90;;;;;;5034509;28;20045;-73
2021/12/02 11:20:39;;;;;;;1.08;0.50;;;3.20;99.90;;;;;;5031994;28;20124;-73
2021/12/02 11:23:09;;;;;;;2.15;0.60;;;3.20;99.90;;;;;;5033049;28;20041;-73
2021/12/02 11:25:39;;;;;;;1.25;0.85;;;3.20;99.90;;;;;;5027557;28;20041;-73
2021/12/02 11:28:07;;;;;;;1.40;0.70;;;3.30;99.90;;;;;;5024865;28;20034;-73
2021/12/02 11:30:35;;;;;;;1.73;0.90;;;3.30;99.90;;;;;;5029186;28;20052;-73
2021/12/02 11:33:06;;;;;;;1.85;0.90;;;3.30;99.90;;;;;;5030491;28;20059;-73
2021/12/02 11:35:33;;;;;;;2.05;0.73;;;3.10;99.90;;;;;;4999337;28;20115;-73
2021/12/02 11:38:18;;;;;;;1.75;0.90;;;3.00;99.90;;;;;;5029984;28;20044;-73
2021/12/02 11:40:48;;;;;;;1.75;0.90;;;3.20;99.90;;;;;;5032445;28;20088;-73
2021/12/02 11:43:17;;;;;;;1.77;0.90;;;3.20;99.90;;;;;;5029996;28;20049;-73
2021/12/02 11:45:46;;;;;;;1.60;0.70;;;3.40;99.90;;;;;;5030160;28;20547;-73
2021/12/02 11:48:21;;;;;;;1.50;0.90;;;3.50;99.90;;;;;;5032373;28;20390;-73
2021/12/02 11:50:50;;;;;;;1.50;0.90;;;3.40;99.90;;;;;;5032491;28;20029;-73
2021/12/02 11:53:21;;;;;;;2.33;0.80;;;3.30;99.90;;;;;;5032483;28;20401;-73
2021/12/02 11:55:58;;;;;;;1.00;0.80;;;3.30;99.90;;;;;;5033713;28;20037;-73
2021/12/02 11:58:25;;;;;;;0.88;0.63;;;3.40;99.90;;;;;;5032117;28;20541;-72
2021/12/02 12:00:51;;;;;;;0.98;0.57;;;3.40;99.90;;;;;;5031786;28;20402;-73
2021/12/02 12:03:28;;;;;;;1.88;1.08;;;3.30;99.90;;;;;;5031692;28;20406;-73
2021/12/02 12:05:58;;;;;;;2.95;0.90;;;3.40;99.90;;;;;;5032969;28;20052;-73
2021/12/02 12:08:43;;;;;;;2.42;0.80;;;3.60;99.90;;;;;;5030437;28;20393;-73
2021/12/02 12:11:29;;;;;;;1.33;0.90;;;3.60;99.90;;;;;;5014457;28;20037;-73
2021/12/02 12:13:58;;;;;;;3.05;1.10;;;3.80;99.90;;;;;;5029222;28;20061;-73
2021/12/02 12:16:51;;;;;;;1.55;0.90;;;3.80;99.90;;;;;;5029499;28;20048;-73
2021/12/02 12:19:22;;;;;;;1.92;0.93;;;3.70;99.90;;;;;;5026659;28;20073;-73
2021/12/02 12:21:53;;;;;;;2.08;0.70;;;3.70;99.90;;;;;;5030165;28;20037;-73
2021/12/02 12:24:18;;;;;;;1.80;0.70;;;3.60;99.90;;;;;;5014950;28;20509;-73
2021/12/02 12:26:46;;;;;;;1.65;0.77;;;3.70;99.90;;;;;;5032131;28;20037;-73
2021/12/02 12:29:14;;;;;;;0.98;0.70;;;3.70;99.90;;;;;;5030996;28;20087;-73
2021/12/02 12:31:57;;;;;;;2.25;0.85;;;3.70;99.90;;;;;;5031540;28;20052;-73
2021/12/02 12:34:38;;;;;;;1.33;0.68;;;3.80;99.90;;;;;;5029444;28;20430;-73
2021/12/02 12:37:21;;;;;;;2.00;0.80;;;3.80;99.90;;;;;;5028729;28;20046;-73
2021/12/02 12:40:16;;;;;;;2.38;1.33;;;3.80;99.90;;;;;;5028797;28;20044;-73
2021/12/02 12:42:52;;;;;;;1.20;0.88;;;4.00;99.90;;;;;;5026238;28;20071;-73
2021/12/02 12:46:02;;;;;;;2.20;1.20;;;4.10;99.90;;;;;;5026050;28;20132;-73
2021/12/02 12:48:29;;;;;;;3.53;1.10;;;4.20;99.90;;;;;;4983411;28;20063;-73
2021/12/02 12:51:23;;;;;;;2.22;1.00;;;4.30;99.90;;;;;;5032982;28;20043;-73
2021/12/02 12:53:51;;;;;;;1.25;0.80;;;4.20;99.90;;;;;;5029889;28;20037;-73
2021/12/02 12:56:24;;;;;;;4.75;2.17;;;4.30;99.90;;;;;;5032696;28;20033;-73
2021/12/02 12:58:52;;;;;;;4.05;1.10;;;4.30;99.90;;;;;;5031019;28;20056;-73
2021/12/02 13:01:20;;;;;;;2.53;0.80;;;4.30;99.90;;;;;;5030001;28;20103;-73
2021/12/02 13:04:08;;;;;;;3.97;0.95;;;4.30;99.90;;;;;;5032563;28;20112;-73
2021/12/02 13:06:50;;;;;;;2.83;0.90;;;4.30;99.90;;;;;;5030825;28;20160;-73
2021/12/02 13:09:54;;;;;;;2.65;0.93;;;4.00;99.90;;;;;;5029590;28;20060;-73
2021/12/02 13:12:44;;;;;;;1.95;0.77;;;4.00;99.90;;;;;;5031305;28;20041;-73
2021/12/02 13:15:10;;;;;;;1.08;0.70;;;3.90;99.90;;;;;;5030788;28;20116;-73
2021/12/02 13:17:44;;;;;;;1.67;0.70;;;3.90;99.90;;;;;;5031033;28;20533;-73
2021/12/02 13:20:28;;;;;;;0.77;0.43;;;3.90;99.90;;;;;;5029487;28;20040;-73
2021/12/02 13:23:12;;;;;;;0.65;0.50;;;3.70;99.90;;;;;;5034819;28;20595;-73
2021/12/02 13:25:50;;;;;;;0.40;0.40;;;3.80;99.90;;;;;;5036364;28;20112;-73